Princeton, NJ (08540)

11:17 AM EDT on October 01, 2016 (GMT -0400)
Princeton | | Change Station

Elev 217 ft 40.35 °N, 74.66 °W | Updated 4 seconds ago

Overcast
Overcast
59.5 °F
Feels Like 59.5 °F
N
0.0
Wind Variable Wind from North
Gusts 0.0 mph

Today
High -- | Low -- °F
--% Chance of Precip.
Yesterday
High -- | Low -- °F
Precip. -- in
Pressure 30.18 in
Visibility 6.0 miles
Clouds Overcast 400 ft
Dew Point 58 °F
Humidity 94%
Rainfall 0.00 in
Snow Depth Not available.
6:55 AM 6:40 PM
New Moon, 0% visible
METAR KTTN 011453Z 05008KT 6SM BR OVC004 14/13 A3020 RMK AO2 SLP219 T01440133 58001
Pressure 30.18 in
Visibility 6.0 miles
Clouds Overcast 400 ft
Dew Point 58 °F
Humidity 94%
Rainfall 0.00 in
Snow Depth Not available.
6:55 AM 6:40 PM
New Moon, 0% visible
METAR KTTN 011453Z 05008KT 6SM BR OVC004 14/13 A3020 RMK AO2 SLP219 T01440133 58001

10-Day Weather Forecast

Almanac

Astronomy

Oct. 01, 2016 Rise Set
Actual Time
Civil Twilight
Nautical Twilight
Astronomical Twilight
Moon
Length of Visible Light
Length of Day
Tomorrow will be .
, % of the Moon is Illuminated

Today's Extremes

State Highs State Lows

Community

WunderPhotos

Upload Photos

1,942,954 photos uploaded!

WunderBlog® & News

Nearby

Air Quality

  Air Quality AQ Index Pollutant
Not available.

Snow Depth

Station Depth Elevation

Earthquake Activity

City Distance Mag. Time & Date
Minimum magnitude displayed is 2.5.

Coastal Water Temperatures

Place Temperature

Stations

Nearby Weather Stations

Station Location Temp. Windchill Dew Point Humidity Wind Precip. Elev Updated Type
                   

Watches & Warnings

There are currently no watches in effect.